sensor_id;sensor_type;location;lat;lon;timestamp;pressure;altitude;pressure_sealevel;temperature;humidity
22283;BME280;11310;51.528;21.204;2023-04-27T00:02:13;99998.84;;;3.31;95.23
22283;BME280;11310;51.528;21.204;2023-04-27T00:04:42;100000.69;;;3.26;95.79
22283;BME280;11310;51.528;21.204;2023-04-27T00:07:12;99999.81;;;3.26;95.85
22283;BME280;11310;51.528;21.204;2023-04-27T00:09:42;99999.81;;;3.26;96.36
22283;BME280;11310;51.528;21.204;2023-04-27T00:12:10;99999.94;;;3.20;96.21
22283;BME280;11310;51.528;21.204;2023-04-27T00:14:39;99999.06;;;3.19;96.42
22283;BME280;11310;51.528;21.204;2023-04-27T00:17:08;100001.75;;;3.15;96.23
22283;BME280;11310;51.528;21.204;2023-04-27T00:19:37;100002.56;;;3.15;96.07
22283;BME280;11310;51.528;21.204;2023-04-27T00:22:07;100000.91;;;3.13;96.31
22283;BME280;11310;51.528;21.204;2023-04-27T00:24:36;100003.59;;;3.07;96.55
22283;BME280;11310;51.528;21.204;2023-04-27T00:27:07;99996.75;;;3.03;96.45
22283;BME280;11310;51.528;21.204;2023-04-27T00:29:35;99995.09;;;2.99;97.22
22283;BME280;11310;51.528;21.204;2023-04-27T00:32:04;99998.59;;;2.96;97.50
22283;BME280;11310;51.528;21.204;2023-04-27T00:34:34;100004.75;;;2.91;97.47
22283;BME280;11310;51.528;21.204;2023-04-27T00:37:03;99998.75;;;2.86;97.66
22283;BME280;11310;51.528;21.204;2023-04-27T00:39:33;100004.91;;;2.80;97.72
22283;BME280;11310;51.528;21.204;2023-04-27T00:42:03;100011.81;;;2.78;97.84
22283;BME280;11310;51.528;21.204;2023-04-27T00:44:33;100013.59;;;2.75;98.20
22283;BME280;11310;51.528;21.204;2023-04-27T00:47:02;100012.84;;;2.68;98.87
22283;BME280;11310;51.528;21.204;2023-04-27T00:49:31;100012.91;;;2.64;98.61
22283;BME280;11310;51.528;21.204;2023-04-27T00:52:03;100022.44;;;2.62;98.94
22283;BME280;11310;51.528;21.204;2023-04-27T00:54:34;100015.56;;;2.59;98.98
22283;BME280;11310;51.528;21.204;2023-04-27T00:57:03;100017.34;;;2.56;99.41
22283;BME280;11310;51.528;21.204;2023-04-27T00:59:34;100017.38;;;2.53;99.17
22283;BME280;11310;51.528;21.204;2023-04-27T01:02:02;100016.59;;;2.48;99.58
22283;BME280;11310;51.528;21.204;2023-04-27T01:04:31;100026.97;;;2.45;99.64
22283;BME280;11310;51.528;21.204;2023-04-27T01:07:00;100028.78;;;2.40;99.95
22283;BME280;11310;51.528;21.204;2023-04-27T01:09:30;100034.00;;;2.37;100.00
22283;BME280;11310;51.528;21.204;2023-04-27T01:11:59;100028.03;;;2.32;100.00
22283;BME280;11310;51.528;21.204;2023-04-27T01:14:29;100026.31;;;2.31;100.00
22283;BME280;11310;51.528;21.204;2023-04-27T01:16:59;100032.41;;;2.27;100.00
22283;BME280;11310;51.528;21.204;2023-04-27T01:19:28;100029.88;;;2.24;100.00
22283;BME280;11310;51.528;21.204;2023-04-27T01:21:56;100032.47;;;2.21;100.00
22283;BME280;11310;51.528;21.204;2023-04-27T01:24:26;100033.38;;;2.18;100.00
22283;BME280;11310;51.528;21.204;2023-04-27T01:26:54;100023.13;;;2.09;100.00
22283;BME280;11310;51.528;21.204;2023-04-27T01:29:25;100036.94;;;2.11;100.00
22283;BME280;11310;51.528;21.204;2023-04-27T01:31:54;100035.25;;;2.06;100.00
22283;BME280;11310;51.528;21.204;2023-04-27T01:34:23;100032.75;;;2.00;100.00
22283;BME280;11310;51.528;21.204;2023-04-27T01:36:51;100039.66;;;1.98;100.00
22283;BME280;11310;51.528;21.204;2023-04-27T01:39:23;100038.03;;;1.91;100.00
22283;BME280;11310;51.528;21.204;2023-04-27T01:41:53;100038.13;;;1.82;100.00
22283;BME280;11310;51.528;21.204;2023-04-27T01:44:24;100038.19;;;1.76;100.00
22283;BME280;11310;51.528;21.204;2023-04-27T01:46:53;100044.22;;;1.73;100.00
22283;BME280;11310;51.528;21.204;2023-04-27T01:49:24;100040.84;;;1.70;100.00
22283;BME280;11310;51.528;21.204;2023-04-27T01:51:57;100038.28;;;1.67;100.00
22283;BME280;11310;51.528;21.204;2023-04-27T01:54:25;100045.19;;;1.68;100.00
22283;BME280;11310;51.528;21.204;2023-04-27T01:56:56;100040.91;;;1.64;100.00
22283;BME280;11310;51.528;21.204;2023-04-27T01:59:25;100039.22;;;1.60;100.00
22283;BME280;11310;51.528;21.204;2023-04-27T02:01:54;100043.53;;;1.58;100.00
22283;BME280;11310;51.528;21.204;2023-04-27T02:04:22;100044.50;;;1.49;100.00
22283;BME280;11310;51.528;21.204;2023-04-27T02:06:52;100049.75;;;1.39;100.00
22283;BME280;11310;51.528;21.204;2023-04-27T02:09:21;100046.41;;;1.28;100.00
22283;BME280;11310;51.528;21.204;2023-04-27T02:11:49;100047.31;;;1.21;100.00
22283;BME280;11310;51.528;21.204;2023-04-27T02:14:19;100048.25;;;1.14;100.00
22283;BME280;11310;51.528;21.204;2023-04-27T02:16:48;100053.47;;;1.08;100.00
22283;BME280;11310;51.528;21.204;2023-04-27T02:19:16;100052.66;;;1.00;100.00
22283;BME280;11310;51.528;21.204;2023-04-27T02:21:45;100044.13;;;0.93;100.00
22283;BME280;11310;51.528;21.204;2023-04-27T02:24:13;100050.16;;;0.86;100.00
22283;BME280;11310;51.528;21.204;2023-04-27T02:26:44;100051.09;;;0.81;100.00
22283;BME280;11310;51.528;21.204;2023-04-27T02:29:13;100061.44;;;0.75;100.00
22283;BME280;11310;51.528;21.204;2023-04-27T02:31:44;100054.56;;;0.71;100.00
22283;BME280;11310;51.528;21.204;2023-04-27T02:34:13;100059.78;;;0.68;100.00
22283;BME280;11310;51.528;21.204;2023-04-27T02:36:42;100061.50;;;0.66;100.00
22283;BME280;11310;51.528;21.204;2023-04-27T02:39:11;100064.13;;;0.61;100.00
22283;BME280;11310;51.528;21.204;2023-04-27T02:41:39;100060.72;;;0.56;100.00
22283;BME280;11310;51.528;21.204;2023-04-27T02:44:08;100065.88;;;0.50;100.00
22283;BME280;11310;51.528;21.204;2023-04-27T02:46:37;100065.91;;;0.47;100.00
22283;BME280;11310;51.528;21.204;2023-04-27T02:49:07;100062.47;;;0.45;100.00
22283;BME280;11310;51.528;21.204;2023-04-27T02:51:36;100070.25;;;0.42;100.00
22283;BME280;11310;51.528;21.204;2023-04-27T02:54:04;100067.66;;;0.41;100.00
22283;BME280;11310;51.528;21.204;2023-04-27T02:56:33;100066.78;;;0.40;100.00
22283;BME280;11310;51.528;21.204;2023-04-27T02:59:03;100064.22;;;0.40;100.00
22283;BME280;11310;51.528;21.204;2023-04-27T03:01:32;100063.34;;;0.43;100.00
22283;BME280;11310;51.528;21.204;2023-04-27T03:04:01;100071.09;;;0.44;100.00
22283;BME280;11310;51.528;21.204;2023-04-27T03:06:31;100067.66;;;0.42;100.00
22283;BME280;11310;51.528;21.204;2023-04-27T03:09:00;100072.81;;;0.41;100.00
22283;BME280;11310;51.528;21.204;2023-04-27T03:11:30;100082.28;;;0.38;100.00
22283;BME280;11310;51.528;21.204;2023-04-27T03:13:59;100081.44;;;0.35;100.00
22283;BME280;11310;51.528;21.204;2023-04-27T03:16:27;100087.47;;;0.32;100.00
22283;BME280;11310;51.528;21.204;2023-04-27T03:18:56;100076.31;;;0.28;100.00
22283;BME280;11310;51.528;21.204;2023-04-27T03:21:25;100084.94;;;0.27;100.00
22283;BME280;11310;51.528;21.204;2023-04-27T03:23:56;100082.34;;;0.23;100.00
22283;BME280;11310;51.528;21.204;2023-04-27T03:26:24;100084.94;;;0.20;100.00
22283;BME280;11310;51.528;21.204;2023-04-27T03:28:53;100084.97;;;0.19;100.00
22283;BME280;11310;51.528;21.204;2023-04-27T03:31:22;100084.97;;;0.17;100.00
22283;BME280;11310;51.528;21.204;2023-04-27T03:33:51;100083.25;;;0.17;100.00
22283;BME280;11310;51.528;21.204;2023-04-27T03:36:21;100084.09;;;0.15;100.00
22283;BME280;11310;51.528;21.204;2023-04-27T03:38:50;100090.13;;;0.16;100.00
22283;BME280;11310;51.528;21.204;2023-04-27T03:41:20;100088.38;;;0.18;100.00
22283;BME280;11310;51.528;21.204;2023-04-27T03:43:49;100089.25;;;0.18;100.00
22283;BME280;11310;51.528;21.204;2023-04-27T03:46:19;100098.69;;;0.21;100.00
22283;BME280;11310;51.528;21.204;2023-04-27T03:48:48;100090.97;;;0.22;100.00
22283;BME280;11310;51.528;21.204;2023-04-27T03:51:17;100097.81;;;0.27;100.00
22283;BME280;11310;51.528;21.204;2023-04-27T03:53:48;100108.09;;;0.31;100.00
22283;BME280;11310;51.528;21.204;2023-04-27T03:56:21;100110.69;;;0.34;100.00
22283;BME280;11310;51.528;21.204;2023-04-27T03:58:52;100116.69;;;0.38;100.00
22283;BME280;11310;51.528;21.204;2023-04-27T04:01:31;100110.66;;;0.43;100.00
22283;BME280;11310;51.528;21.204;2023-04-27T04:04:01;100108.06;;;0.46;100.00
22283;BME280;11310;51.528;21.204;2023-04-27T04:06:31;100112.31;;;0.52;100.00
22283;BME280;11310;51.528;21.204;2023-04-27T04:08:59;100108.88;;;0.54;100.00
22283;BME280;11310;51.528;21.204;2023-04-27T04:11:31;100114.88;;;0.59;100.00
22283;BME280;11310;51.528;21.204;2023-04-27T04:14:03;100114.84;;;0.62;100.00
22283;BME280;11310;51.528;21.204;2023-04-27T04:16:32;100124.31;;;0.69;100.00
22283;BME280;11310;51.528;21.204;2023-04-27T04:19:01;100123.38;;;0.78;100.00
22283;BME280;11310;51.528;21.204;2023-04-27T04:21:30;100127.63;;;0.86;100.00
22283;BME280;11310;51.528;21.204;2023-04-27T04:23:59;100125.84;;;0.97;100.00
22283;BME280;11310;51.528;21.204;2023-04-27T04:26:28;100136.97;;;1.10;100.00
22283;BME280;11310;51.528;21.204;2023-04-27T04:28:58;100134.31;;;1.20;100.00
22283;BME280;11310;51.528;21.204;2023-04-27T04:31:27;100128.22;;;1.26;100.00
22283;BME280;11310;51.528;21.204;2023-04-27T04:33:56;100133.31;;;1.41;100.00
22283;BME280;11310;51.528;21.204;2023-04-27T04:36:25;100129.75;;;1.51;100.00
22283;BME280;11310;51.528;21.204;2023-04-27T04:38:54;100137.44;;;1.60;100.00
22283;BME280;11310;51.528;21.204;2023-04-27T04:41:25;100136.50;;;1.68;100.00
22283;BME280;11310;51.528;21.204;2023-04-27T04:43:54;100139.88;;;1.79;100.00
22283;BME280;11310;51.528;21.204;2023-04-27T04:46:24;100138.00;;;1.92;100.00
22283;BME280;11310;51.528;21.204;2023-04-27T04:48:53;100135.34;;;1.98;100.00
22283;BME280;11310;51.528;21.204;2023-04-27T04:51:22;100138.66;;;2.12;100.00
22283;BME280;11310;51.528;21.204;2023-04-27T04:53:51;100134.25;;;2.23;100.00
22283;BME280;11310;51.528;21.204;2023-04-27T04:56:22;100142.72;;;2.34;100.00
22283;BME280;11310;51.528;21.204;2023-04-27T04:58:53;100139.16;;;2.44;100.00
22283;BME280;11310;51.528;21.204;2023-04-27T05:01:25;100145.06;;;2.56;100.00
22283;BME280;11310;51.528;21.204;2023-04-27T05:03:54;100157.88;;;2.67;100.00
22283;BME280;11310;51.528;21.204;2023-04-27T05:06:23;100147.38;;;2.79;100.00
22283;BME280;11310;51.528;21.204;2023-04-27T05:08:52;100146.34;;;2.90;100.00
22283;BME280;11310;51.528;21.204;2023-04-27T05:11:21;100148.78;;;3.01;100.00
22283;BME280;11310;51.528;21.204;2023-04-27T05:13:49;100154.66;;;3.13;100.00
22283;BME280;11310;51.528;21.204;2023-04-27T05:16:18;100144.94;;;3.29;100.00
22283;BME280;11310;51.528;21.204;2023-04-27T05:18:48;100159.44;;;3.42;100.00
22283;BME280;11310;51.528;21.204;2023-04-27T05:21:17;100156.63;;;3.54;100.00
22283;BME280;11310;51.528;21.204;2023-04-27T05:23:47;100160.72;;;3.68;100.00
22283;BME280;11310;51.528;21.204;2023-04-27T05:26:17;100159.63;;;3.83;100.00
22283;BME280;11310;51.528;21.204;2023-04-27T05:28:46;100157.63;;;3.98;100.00
22283;BME280;11310;51.528;21.204;2023-04-27T05:31:18;100158.19;;;4.14;100.00
22283;BME280;11310;51.528;21.204;2023-04-27T05:33:46;100157.03;;;4.30;99.65
22283;BME280;11310;51.528;21.204;2023-04-27T05:36:17;100155.03;;;4.44;99.35
22283;BME280;11310;51.528;21.204;2023-04-27T05:38:46;100165.94;;;4.61;98.38
22283;BME280;11310;51.528;21.204;2023-04-27T05:41:14;100167.28;;;4.80;97.61
22283;BME280;11310;51.528;21.204;2023-04-27T05:43:44;100175.59;;;4.97;96.74
22283;BME280;11310;51.528;21.204;2023-04-27T05:46:13;100177.81;;;5.15;96.38
22283;BME280;11310;51.528;21.204;2023-04-27T05:48:42;100169.56;;;5.33;96.05
22283;BME280;11310;51.528;21.204;2023-04-27T05:51:11;100172.59;;;5.51;95.66
22283;BME280;11310;51.528;21.204;2023-04-27T05:53:42;100167.75;;;5.73;94.44
22283;BME280;11310;51.528;21.204;2023-04-27T05:56:10;100170.84;;;5.90;93.55
22283;BME280;11310;51.528;21.204;2023-04-27T05:58:39;100174.69;;;6.09;92.71
22283;BME280;11310;51.528;21.204;2023-04-27T06:01:08;100176.84;;;6.25;92.90
22283;BME280;11310;51.528;21.204;2023-04-27T06:03:37;100179.84;;;6.42;92.33
22283;BME280;11310;51.528;21.204;2023-04-27T06:06:07;100185.56;;;6.56;91.76
22283;BME280;11310;51.528;21.204;2023-04-27T06:08:36;100183.47;;;6.69;91.15
22283;BME280;11310;51.528;21.204;2023-04-27T06:11:07;100188.97;;;6.89;90.36
22283;BME280;11310;51.528;21.204;2023-04-27T06:13:36;100187.78;;;7.00;90.12
22283;BME280;11310;51.528;21.204;2023-04-27T06:16:05;100186.38;;;7.18;89.96
22283;BME280;11310;51.528;21.204;2023-04-27T06:18:34;100179.78;;;7.34;89.37
22283;BME280;11310;51.528;21.204;2023-04-27T06:21:03;100182.66;;;7.54;87.87
22283;BME280;11310;51.528;21.204;2023-04-27T06:23:48;100193.50;;;7.68;88.65
22283;BME280;11310;51.528;21.204;2023-04-27T06:26:32;100188.66;;;7.83;88.60
22283;BME280;11310;51.528;21.204;2023-04-27T06:29:02;100197.84;;;7.95;86.75
22283;BME280;11310;51.528;21.204;2023-04-27T06:31:36;100199.41;;;8.00;86.76
22283;BME280;11310;51.528;21.204;2023-04-27T06:34:10;100197.13;;;8.16;85.97
22283;BME280;11310;51.528;21.204;2023-04-27T06:36:40;100201.88;;;8.31;85.77
22283;BME280;11310;51.528;21.204;2023-04-27T06:39:11;100198.00;;;8.42;85.85
22283;BME280;11310;51.528;21.204;2023-04-27T06:41:44;100195.81;;;8.55;85.63
22283;BME280;11310;51.528;21.204;2023-04-27T06:44:18;100193.66;;;8.66;84.56
22283;BME280;11310;51.528;21.204;2023-04-27T06:46:47;100198.59;;;8.73;84.96
22283;BME280;11310;51.528;21.204;2023-04-27T06:49:16;100207.56;;;8.91;84.32
22283;BME280;11310;51.528;21.204;2023-04-27T06:51:44;100206.22;;;9.04;83.42
22283;BME280;11310;51.528;21.204;2023-04-27T06:54:13;100209.84;;;9.23;82.54
22283;BME280;11310;51.528;21.204;2023-04-27T06:56:44;100201.41;;;9.38;83.15
22283;BME280;11310;51.528;21.204;2023-04-27T06:59:16;100194.69;;;9.54;82.28
22283;BME280;11310;51.528;21.204;2023-04-27T07:01:45;100201.56;;;9.78;80.99
22283;BME280;11310;51.528;21.204;2023-04-27T07:04:15;100196.63;;;9.92;81.01
22283;BME280;11310;51.528;21.204;2023-04-27T07:06:46;100192.47;;;10.08;80.42
22283;BME280;11310;51.528;21.204;2023-04-27T07:09:15;100199.06;;;10.18;80.18
22283;BME280;11310;51.528;21.204;2023-04-27T07:11:55;100200.63;;;10.22;79.73
22283;BME280;11310;51.528;21.204;2023-04-27T07:14:25;100200.00;;;10.37;79.90
22283;BME280;11310;51.528;21.204;2023-04-27T07:16:54;100207.19;;;10.52;78.87
22283;BME280;11310;51.528;21.204;2023-04-27T07:19:25;100207.50;;;10.64;78.57
22283;BME280;11310;51.528;21.204;2023-04-27T07:21:55;100201.94;;;10.72;78.09
22283;BME280;11310;51.528;21.204;2023-04-27T07:24:24;100208.22;;;10.88;77.88
22283;BME280;11310;51.528;21.204;2023-04-27T07:26:53;100207.00;;;10.95;76.81
22283;BME280;11310;51.528;21.204;2023-04-27T07:29:26;100206.19;;;11.13;76.03
22283;BME280;11310;51.528;21.204;2023-04-27T07:31:58;100216.91;;;11.27;75.95
22283;BME280;11310;51.528;21.204;2023-04-27T07:34:28;100207.50;;;11.23;75.50
22283;BME280;11310;51.528;21.204;2023-04-27T07:37:16;100217.13;;;11.41;76.09
22283;BME280;11310;51.528;21.204;2023-04-27T07:39:45;100214.41;;;11.63;75.50
22283;BME280;11310;51.528;21.204;2023-04-27T07:42:15;100206.16;;;11.70;73.88
22283;BME280;11310;51.528;21.204;2023-04-27T07:44:46;100209.59;;;11.89;72.81
22283;BME280;11310;51.528;21.204;2023-04-27T07:47:16;100213.19;;;12.05;73.42
22283;BME280;11310;51.528;21.204;2023-04-27T07:49:45;100208.63;;;12.26;71.66
22283;BME280;11310;51.528;21.204;2023-04-27T07:52:14;100212.00;;;12.29;70.55
22283;BME280;11310;51.528;21.204;2023-04-27T07:54:43;100208.81;;;12.23;68.76
22283;BME280;11310;51.528;21.204;2023-04-27T07:57:11;100209.97;;;12.34;70.32
22283;BME280;11310;51.528;21.204;2023-04-27T07:59:40;100207.97;;;12.56;68.49
22283;BME280;11310;51.528;21.204;2023-04-27T08:02:10;100206.97;;;12.59;66.46
22283;BME280;11310;51.528;21.204;2023-04-27T08:04:46;100203.00;;;12.67;67.33
22283;BME280;11310;51.528;21.204;2023-04-27T08:07:16;100207.78;;;12.76;66.42
22283;BME280;11310;51.528;21.204;2023-04-27T08:09:45;100205.34;;;12.89;66.30
22283;BME280;11310;51.528;21.204;2023-04-27T08:12:14;100206.81;;;13.11;63.55
22283;BME280;11310;51.528;21.204;2023-04-27T08:14:44;100201.75;;;13.24;64.02
22283;BME280;11310;51.528;21.204;2023-04-27T08:17:15;100200.91;;;13.39;62.83
22283;BME280;11310;51.528;21.204;2023-04-27T08:19:44;100209.59;;;13.56;62.46
22283;BME280;11310;51.528;21.204;2023-04-27T08:22:13;100199.91;;;13.72;61.17
22283;BME280;11310;51.528;21.204;2023-04-27T08:24:42;100205.00;;;13.75;61.90
22283;BME280;11310;51.528;21.204;2023-04-27T08:27:11;100204.47;;;13.38;63.50
22283;BME280;11310;51.528;21.204;2023-04-27T08:29:44;100210.00;;;12.84;63.85
22283;BME280;11310;51.528;21.204;2023-04-27T08:32:15;100209.44;;;12.45;66.49
22283;BME280;11310;51.528;21.204;2023-04-27T08:34:43;100217.22;;;12.80;66.19
22283;BME280;11310;51.528;21.204;2023-04-27T08:37:12;100202.78;;;13.37;63.77
22283;BME280;11310;51.528;21.204;2023-04-27T08:39:41;100191.63;;;13.78;61.46
22283;BME280;11310;51.528;21.204;2023-04-27T08:42:10;100200.41;;;13.79;60.43
22283;BME280;11310;51.528;21.204;2023-04-27T08:44:40;100197.84;;;13.77;60.64
22283;BME280;11310;51.528;21.204;2023-04-27T08:47:08;100210.50;;;13.55;61.41
22283;BME280;11310;51.528;21.204;2023-04-27T08:49:39;100204.94;;;14.06;60.47
22283;BME280;11310;51.528;21.204;2023-04-27T08:52:12;100210.16;;;14.67;55.84
22283;BME280;11310;51.528;21.204;2023-04-27T08:54:42;100202.47;;;14.19;57.11
22283;BME280;11310;51.528;21.204;2023-04-27T08:57:12;100200.16;;;13.68;58.47
22283;BME280;11310;51.528;21.204;2023-04-27T08:59:41;100200.19;;;13.20;58.16
22283;BME280;11310;51.528;21.204;2023-04-27T09:02:18;100201.22;;;13.17;58.22
22283;BME280;11310;51.528;21.204;2023-04-27T09:04:48;100205.72;;;13.15;59.89
22283;BME280;11310;51.528;21.204;2023-04-27T09:07:18;100200.56;;;13.60;57.86
22283;BME280;11310;51.528;21.204;2023-04-27T09:09:47;100191.66;;;14.08;56.64
22283;BME280;11310;51.528;21.204;2023-04-27T09:12:17;100208.38;;;14.53;55.93
22283;BME280;11310;51.528;21.204;2023-04-27T09:14:56;100199.00;;;14.48;50.84
22283;BME280;11310;51.528;21.204;2023-04-27T09:17:26;100199.84;;;14.19;56.07
22283;BME280;11310;51.528;21.204;2023-04-27T09:20:05;100199.09;;;14.46;49.63
22283;BME280;11310;51.528;21.204;2023-04-27T09:22:43;100188.16;;;14.96;53.30
22283;BME280;11310;51.528;21.204;2023-04-27T09:25:24;100195.66;;;14.74;49.66
22283;BME280;11310;51.528;21.204;2023-04-27T09:27:52;100189.63;;;14.28;54.39
22283;BME280;11310;51.528;21.204;2023-04-27T09:30:21;100200.75;;;13.88;55.52
22283;BME280;11310;51.528;21.204;2023-04-27T09:32:51;100199.31;;;13.67;55.99
22283;BME280;11310;51.528;21.204;2023-04-27T09:35:23;100195.78;;;13.20;54.44
22283;BME280;11310;51.528;21.204;2023-04-27T09:37:53;100196.91;;;12.82;58.00
22283;BME280;11310;51.528;21.204;2023-04-27T09:40:23;100200.97;;;12.55;58.22
22283;BME280;11310;51.528;21.204;2023-04-27T09:42:54;100192.47;;;12.16;58.53
22283;BME280;11310;51.528;21.204;2023-04-27T09:45:23;100183.69;;;11.82;60.11
22283;BME280;11310;51.528;21.204;2023-04-27T09:47:53;100205.59;;;11.63;61.36
22283;BME280;11310;51.528;21.204;2023-04-27T09:50:23;100194.78;;;11.51;60.92
22283;BME280;11310;51.528;21.204;2023-04-27T09:52:52;100206.09;;;11.34;62.35
22283;BME280;11310;51.528;21.204;2023-04-27T09:55:23;100205.13;;;11.17;62.06
22283;BME280;11310;51.528;21.204;2023-04-27T10:00:50;100215.13;;;10.90;63.17
22283;BME280;11310;51.528;21.204;2023-04-27T10:03:29;100220.34;;;10.90;62.25
22283;BME280;11310;51.528;21.204;2023-04-27T10:09:19;100207.81;;;10.97;61.82
22283;BME280;11310;51.528;21.204;2023-04-27T10:11:50;100213.44;;;11.08;61.60
22283;BME280;11310;51.528;21.204;2023-04-27T10:14:21;100203.09;;;11.23;60.64
22283;BME280;11310;51.528;21.204;2023-04-27T10:16:52;100205.66;;;11.43;59.93
22283;BME280;11310;51.528;21.204;2023-04-27T10:19:23;100204.94;;;11.58;57.37
22283;BME280;11310;51.528;21.204;2023-04-27T10:21:57;100194.41;;;11.77;56.70
22283;BME280;11310;51.528;21.204;2023-04-27T10:24:38;100191.69;;;11.97;55.02
22283;BME280;11310;51.528;21.204;2023-04-27T10:27:09;100204.31;;;12.25;55.99
22283;BME280;11310;51.528;21.204;2023-04-27T10:29:40;100194.03;;;12.37;54.91
22283;BME280;11310;51.528;21.204;2023-04-27T10:32:12;100194.50;;;12.45;54.92
22283;BME280;11310;51.528;21.204;2023-04-27T10:34:41;100198.28;;;12.57;53.34
22283;BME280;11310;51.528;21.204;2023-04-27T10:37:14;100200.63;;;12.95;53.72
22283;BME280;11310;51.528;21.204;2023-04-27T10:39:45;100193.41;;;13.93;52.41
22283;BME280;11310;51.528;21.204;2023-04-27T10:42:26;100200.56;;;14.66;46.72
22283;BME280;11310;51.528;21.204;2023-04-27T10:44:56;100198.66;;;14.24;48.79
22283;BME280;11310;51.528;21.204;2023-04-27T10:47:35;100204.13;;;13.59;47.63
22283;BME280;11310;51.528;21.204;2023-04-27T10:50:06;100205.47;;;13.20;53.77
22283;BME280;11310;51.528;21.204;2023-04-27T10:52:35;100213.31;;;12.87;54.91
22283;BME280;11310;51.528;21.204;2023-04-27T10:55:13;100214.44;;;12.32;52.30
22283;BME280;11310;51.528;21.204;2023-04-27T10:57:50;100217.31;;;11.75;57.09
22283;BME280;11310;51.528;21.204;2023-04-27T11:00:23;100221.63;;;11.39;60.23
22283;BME280;11310;51.528;21.204;2023-04-27T11:02:53;100225.31;;;11.16;62.28
22283;BME280;11310;51.528;21.204;2023-04-27T11:05:24;100227.47;;;11.07;63.02
22283;BME280;11310;51.528;21.204;2023-04-27T11:08:04;100236.56;;;11.00;62.86
22283;BME280;11310;51.528;21.204;2023-04-27T11:10:34;100232.72;;;10.88;63.88
22283;BME280;11310;51.528;21.204;2023-04-27T11:13:07;100243.91;;;10.72;63.27
22283;BME280;11310;51.528;21.204;2023-04-27T11:15:42;100240.78;;;10.64;63.54
22283;BME280;11310;51.528;21.204;2023-04-27T11:18:11;100230.16;;;10.47;64.21
22283;BME280;11310;51.528;21.204;2023-04-27T11:20:40;100242.59;;;10.42;65.16
22283;BME280;11310;51.528;21.204;2023-04-27T11:23:08;100239.19;;;10.40;65.77
22283;BME280;11310;51.528;21.204;2023-04-27T11:25:41;100242.47;;;10.45;65.46
22283;BME280;11310;51.528;21.204;2023-04-27T11:28:16;100239.59;;;10.51;65.43
22283;BME280;11310;51.528;21.204;2023-04-27T11:30:45;100240.38;;;10.53;65.42
22283;BME280;11310;51.528;21.204;2023-04-27T11:33:15;100235.66;;;10.61;65.69
22283;BME280;11310;51.528;21.204;2023-04-27T11:35:44;100241.56;;;10.66;64.87
22283;BME280;11310;51.528;21.204;2023-04-27T11:38:19;100242.22;;;10.71;64.78
22283;BME280;11310;51.528;21.204;2023-04-27T11:41:00;100237.44;;;10.80;65.02
22283;BME280;11310;51.528;21.204;2023-04-27T11:43:30;100241.41;;;10.89;64.44
22283;BME280;11310;51.528;21.204;2023-04-27T11:46:01;100241.13;;;10.95;64.32
22283;BME280;11310;51.528;21.204;2023-04-27T11:48:30;100244.56;;;10.97;63.18
22283;BME280;11310;51.528;21.204;2023-04-27T11:50:59;100240.31;;;10.94;63.93
22283;BME280;11310;51.528;21.204;2023-04-27T11:53:28;100249.53;;;11.03;64.44
22283;BME280;11310;51.528;21.204;2023-04-27T11:56:00;100249.06;;;11.13;64.06
22283;BME280;11310;51.528;21.204;2023-04-27T11:58:32;100255.75;;;11.20;63.46
22283;BME280;11310;51.528;21.204;2023-04-27T12:01:01;100250.34;;;11.23;62.95
22283;BME280;11310;51.528;21.204;2023-04-27T12:03:31;100243.97;;;11.29;63.25
22283;BME280;11310;51.528;21.204;2023-04-27T12:06:00;100236.75;;;11.34;63.16
22283;BME280;11310;51.528;21.204;2023-04-27T12:08:49;100241.03;;;11.55;63.42
22283;BME280;11310;51.528;21.204;2023-04-27T12:11:20;100238.47;;;11.72;61.74
22283;BME280;11310;51.528;21.204;2023-04-27T12:13:48;100244.72;;;11.88;62.14
22283;BME280;11310;51.528;21.204;2023-04-27T12:16:17;100244.84;;;11.85;60.95
22283;BME280;11310;51.528;21.204;2023-04-27T12:18:48;100241.03;;;11.92;61.27
22283;BME280;11310;51.528;21.204;2023-04-27T12:21:18;100235.00;;;12.07;60.87
22283;BME280;11310;51.528;21.204;2023-04-27T12:23:47;100233.69;;;12.16;60.15
22283;BME280;11310;51.528;21.204;2023-04-27T12:26:16;100235.25;;;12.20;60.41
22283;BME280;11310;51.528;21.204;2023-04-27T12:28:48;100231.69;;;12.21;60.51
22283;BME280;11310;51.528;21.204;2023-04-27T12:31:17;100231.97;;;12.33;60.67
22283;BME280;11310;51.528;21.204;2023-04-27T12:33:54;100237.44;;;12.29;59.84
22283;BME280;11310;51.528;21.204;2023-04-27T12:36:23;100234.81;;;12.29;60.58
22283;BME280;11310;51.528;21.204;2023-04-27T12:38:56;100231.00;;;12.17;60.35
22283;BME280;11310;51.528;21.204;2023-04-27T12:41:26;100236.50;;;12.13;61.15
22283;BME280;11310;51.528;21.204;2023-04-27T12:43:57;100238.56;;;12.06;61.28
22283;BME280;11310;51.528;21.204;2023-04-27T12:46:26;100235.88;;;12.08;62.00
22283;BME280;11310;51.528;21.204;2023-04-27T12:48:55;100236.41;;;12.14;61.86
22283;BME280;11310;51.528;21.204;2023-04-27T12:51:24;100226.44;;;12.21;61.44
22283;BME280;11310;51.528;21.204;2023-04-27T12:53:55;100231.16;;;12.31;61.30
22283;BME280;11310;51.528;21.204;2023-04-27T12:56:27;100223.28;;;12.48;60.62
22283;BME280;11310;51.528;21.204;2023-04-27T12:58:58;100228.38;;;12.85;59.03
22283;BME280;11310;51.528;21.204;2023-04-27T13:01:27;100231.88;;;13.18;57.59
22283;BME280;11310;51.528;21.204;2023-04-27T13:03:59;100229.25;;;13.18;57.36
22283;BME280;11310;51.528;21.204;2023-04-27T13:06:30;100229.53;;;12.97;57.41